createdAt,value
2023-01-20T00:01:09.681Z,30.41
2023-01-20T00:03:40.753Z,30.40
2023-01-20T00:06:10.407Z,30.52
2023-01-20T00:08:40.751Z,30.94
2023-01-20T00:11:10.634Z,31.37
2023-01-20T00:13:38.836Z,31.47
2023-01-20T00:16:13.341Z,31.81
2023-01-20T00:18:41.299Z,31.99
2023-01-20T00:21:12.431Z,32.59
2023-01-20T00:23:44.081Z,32.21
2023-01-20T00:26:16.577Z,32.88
2023-01-20T00:28:45.203Z,32.67
2023-01-20T00:31:20.307Z,32.79
2023-01-20T00:33:49.062Z,32.53
2023-01-20T00:36:18.517Z,32.75
2023-01-20T00:38:46.869Z,32.93
2023-01-20T00:41:18.595Z,33.16
2023-01-20T00:43:50.632Z,33.00
2023-01-20T00:46:18.291Z,33.18
2023-01-20T00:48:49.529Z,32.85
2023-01-20T00:51:17.085Z,32.84
2023-01-20T00:53:47.137Z,32.81
2023-01-20T00:56:21.479Z,33.08
2023-01-20T00:58:49.203Z,33.10
2023-01-20T01:01:16.870Z,32.95
2023-01-20T01:03:52.361Z,32.96
2023-01-20T01:06:23.688Z,33.38
2023-01-20T01:08:51.137Z,33.06
2023-01-20T01:11:18.695Z,33.39
2023-01-20T01:13:49.250Z,33.42
2023-01-20T01:16:19.401Z,33.25
2023-01-20T01:18:46.819Z,33.27
2023-01-20T01:21:16.871Z,33.29
2023-01-20T01:23:47.963Z,33.25
2023-01-20T01:26:15.417Z,33.35
2023-01-20T01:28:42.845Z,33.30
2023-01-20T01:31:13.644Z,33.17
2023-01-20T01:33:44.784Z,33.10
2023-01-20T01:36:14.296Z,33.32
2023-01-20T01:38:42.157Z,33.08
2023-01-20T01:41:20.047Z,33.45
2023-01-20T01:44:01.694Z,33.44
2023-01-20T01:46:30.925Z,33.28
2023-01-20T01:49:05.573Z,33.33
2023-01-20T01:51:38.513Z,33.44
2023-01-20T01:54:12.250Z,33.27
2023-01-20T01:56:41.830Z,33.46
2023-01-20T01:59:09.965Z,33.58
2023-01-20T02:01:44.852Z,33.47
2023-01-20T02:04:25.805Z,33.33
2023-01-20T02:07:04.991Z,32.97
2023-01-20T02:09:33.374Z,32.71
2023-01-20T02:12:04.128Z,32.54
2023-01-20T02:14:45.115Z,32.28
2023-01-20T02:17:22.551Z,31.94
2023-01-20T02:20:14.921Z,31.51
2023-01-20T02:23:07.287Z,31.19
2023-01-20T02:26:09.121Z,31.46
2023-01-20T02:28:51.448Z,31.44
2023-01-20T02:31:31.102Z,31.32
2023-01-20T02:34:04.751Z,30.95
2023-01-20T02:36:40.803Z,30.95
2023-01-20T02:39:50.104Z,30.91
2023-01-20T02:42:34.704Z,30.71
2023-01-20T02:45:45.487Z,30.30
2023-01-20T02:48:13.005Z,30.54
2023-01-20T02:50:49.432Z,30.44
2023-01-20T02:53:24.411Z,30.60
2023-01-20T02:56:00.471Z,30.49
2023-01-20T02:58:39.184Z,30.58
2023-01-20T03:01:15.268Z,30.07
2023-01-20T03:03:45.897Z,30.51
2023-01-20T03:06:24.529Z,30.23
2023-01-20T03:08:54.300Z,30.06
2023-01-20T03:11:24.669Z,29.90
2023-01-20T03:14:02.876Z,30.00
2023-01-20T03:16:33.779Z,29.92
2023-01-20T03:19:06.544Z,29.80
2023-01-20T03:21:35.260Z,29.68
2023-01-20T03:24:05.862Z,29.63
2023-01-20T03:26:36.881Z,29.80
2023-01-20T03:29:09.599Z,29.59
2023-01-20T03:31:43.754Z,29.51
2023-01-20T03:34:18.080Z,29.82
2023-01-20T03:36:46.453Z,30.13
2023-01-20T03:39:14.959Z,30.25
2023-01-20T03:42:15.779Z,30.79
2023-01-20T03:45:08.751Z,30.94
2023-01-20T03:47:41.997Z,31.36
2023-01-20T03:50:09.793Z,31.28
2023-01-20T03:52:53.535Z,31.86
2023-01-20T03:55:37.254Z,32.02
2023-01-20T03:58:11.846Z,31.92
2023-01-20T04:00:46.548Z,32.10
2023-01-20T04:03:23.738Z,32.11
2023-01-20T04:05:55.679Z,32.30
2023-01-20T04:08:30.411Z,32.60
2023-01-20T04:11:03.729Z,32.19
2023-01-20T04:13:34.471Z,32.25
2023-01-20T04:16:04.887Z,32.67
2023-01-20T04:18:32.387Z,32.56
2023-01-20T04:21:03.800Z,32.56
2023-01-20T04:23:44.234Z,32.42
2023-01-20T04:26:16.641Z,32.55
2023-01-20T04:28:44.526Z,32.48
2023-01-20T04:31:28.723Z,32.58
2023-01-20T04:33:59.663Z,32.37
2023-01-20T04:36:27.177Z,32.49
2023-01-20T04:38:54.844Z,32.68
2023-01-20T04:41:22.530Z,32.46
2023-01-20T04:43:55.678Z,32.44
2023-01-20T04:46:25.313Z,32.44
2023-01-20T04:48:56.150Z,32.20
2023-01-20T04:51:23.756Z,32.56
2023-01-20T04:53:51.569Z,32.58
2023-01-20T04:56:24.193Z,32.41
2023-01-20T04:58:51.753Z,32.85
2023-01-20T05:01:22.040Z,32.30
2023-01-20T05:03:51.858Z,32.16
2023-01-20T05:06:19.329Z,32.55
2023-01-20T05:08:49.724Z,32.39
2023-01-20T05:11:19.772Z,32.36
2023-01-20T05:13:47.086Z,32.52
2023-01-20T05:16:14.673Z,32.57
2023-01-20T05:18:42.059Z,32.25
2023-01-20T05:21:09.864Z,32.49
2023-01-20T05:23:37.390Z,32.46
2023-01-20T05:26:04.924Z,32.63
2023-01-20T05:28:38.207Z,32.65
2023-01-20T05:31:08.662Z,32.53
2023-01-20T05:33:39.896Z,32.65
2023-01-20T05:36:11.780Z,32.52
2023-01-20T05:38:40.006Z,32.33
2023-01-20T05:41:10.025Z,32.52
2023-01-20T05:43:37.715Z,32.24
2023-01-20T05:46:05.939Z,32.46
2023-01-20T05:48:35.819Z,32.53
2023-01-20T05:51:08.220Z,32.48
2023-01-20T05:53:38.266Z,32.70
2023-01-20T05:56:06.354Z,32.55
2023-01-20T05:58:38.962Z,32.49
2023-01-20T06:01:08.358Z,32.24
2023-01-20T06:03:38.866Z,32.26
2023-01-20T06:06:15.544Z,32.25
2023-01-20T06:08:43.615Z,32.67
2023-01-20T06:11:12.312Z,32.51
2023-01-20T06:13:45.237Z,32.34
2023-01-20T06:16:15.237Z,32.40
2023-01-20T06:18:42.864Z,32.71
2023-01-20T06:21:12.406Z,32.54
2023-01-20T06:23:42.404Z,32.34
2023-01-20T06:26:12.741Z,32.09
2023-01-20T06:28:41.027Z,32.05
2023-01-20T06:31:09.686Z,32.41
2023-01-20T06:33:40.130Z,32.34
2023-01-20T06:36:14.397Z,32.21
2023-01-20T06:38:50.786Z,32.54
2023-01-20T06:41:24.990Z,32.31
2023-01-20T06:43:52.663Z,32.44
2023-01-20T06:46:23.815Z,32.23
2023-01-20T06:49:00.167Z,32.33
2023-01-20T06:51:30.571Z,32.23
2023-01-20T06:53:57.979Z,32.39
2023-01-20T06:56:27.865Z,32.45
2023-01-20T06:58:57.988Z,32.27
2023-01-20T07:01:33.089Z,31.49
2023-01-20T07:04:02.755Z,31.54
2023-01-20T07:06:40.554Z,32.26
2023-01-20T07:09:11.473Z,31.44
2023-01-20T07:11:39.771Z,30.31
2023-01-20T07:14:10.805Z,28.83
2023-01-20T07:16:38.735Z,27.64
2023-01-20T07:19:26.299Z,26.81
2023-01-20T07:21:56.429Z,26.55
2023-01-20T07:24:24.107Z,26.86
2023-01-20T07:26:59.216Z,27.20
2023-01-20T07:29:32.027Z,27.62
2023-01-20T07:32:05.425Z,26.50
2023-01-20T07:34:33.085Z,26.00
2023-01-20T07:37:02.418Z,26.43
2023-01-20T07:39:38.227Z,26.78
2023-01-20T07:42:08.746Z,26.65
2023-01-20T07:44:37.275Z,26.71
2023-01-20T07:47:09.587Z,27.69
2023-01-20T07:49:38.935Z,27.43
2023-01-20T07:52:16.768Z,27.29
2023-01-20T07:54:47.676Z,27.57
2023-01-20T07:57:18.901Z,27.17
2023-01-20T07:59:47.760Z,27.76
2023-01-20T08:02:20.810Z,28.13
2023-01-20T08:04:54.641Z,28.68
2023-01-20T08:07:22.607Z,28.82
2023-01-20T08:09:55.715Z,28.93
2023-01-20T08:12:29.512Z,29.54
2023-01-20T08:15:00.342Z,29.17
2023-01-20T08:17:30.945Z,29.51
2023-01-20T08:20:04.065Z,29.87
2023-01-20T08:22:34.388Z,29.26
2023-01-20T08:25:05.067Z,29.96
2023-01-20T08:27:32.904Z,30.30
2023-01-20T08:30:04.324Z,30.78
2023-01-20T08:32:35.902Z,30.62
2023-01-20T08:35:13.318Z,30.89
2023-01-20T08:37:44.021Z,31.00
2023-01-20T08:40:17.227Z,30.92
2023-01-20T08:42:47.101Z,30.99
2023-01-20T08:45:15.159Z,31.10
2023-01-20T08:47:48.859Z,31.38
2023-01-20T08:50:26.318Z,31.39
2023-01-20T08:52:56.930Z,31.11
2023-01-20T08:55:30.128Z,31.27
2023-01-20T08:57:57.952Z,31.49
2023-01-20T09:00:25.778Z,31.88
2023-01-20T09:02:53.675Z,31.84
2023-01-20T09:05:24.941Z,31.65
2023-01-20T09:07:55.884Z,31.59
2023-01-20T09:10:29.026Z,31.76
2023-01-20T09:13:04.524Z,31.99
2023-01-20T09:15:40.992Z,31.67
2023-01-20T09:18:16.877Z,31.56
2023-01-20T09:21:02.221Z,31.41
2023-01-20T09:23:41.028Z,31.97
2023-01-20T09:26:29.735Z,31.94
2023-01-20T09:29:09.960Z,31.91
2023-01-20T09:31:46.677Z,32.33
2023-01-20T09:34:27.529Z,32.09
2023-01-20T09:37:19.356Z,32.55
2023-01-20T09:40:06.551Z,32.52
2023-01-20T09:43:11.386Z,32.29
2023-01-20T09:45:51.435Z,32.57
2023-01-20T09:49:08.540Z,32.22
2023-01-20T09:52:23.704Z,32.21
2023-01-20T09:55:01.924Z,32.27
2023-01-20T09:57:40.443Z,32.68
2023-01-20T10:00:20.575Z,32.51
2023-01-20T10:02:57.580Z,32.74
2023-01-20T10:05:37.257Z,32.52
2023-01-20T10:08:19.073Z,33.04
2023-01-20T10:10:50.382Z,32.90
2023-01-20T10:13:56.427Z,32.37
2023-01-20T10:16:34.965Z,32.86
2023-01-20T10:19:10.354Z,33.02
2023-01-20T10:22:01.871Z,32.75
2023-01-20T10:24:47.776Z,33.21
2023-01-20T10:27:26.934Z,32.65
2023-01-20T10:30:12.317Z,32.51
2023-01-20T10:32:55.573Z,32.72
2023-01-20T10:35:36.055Z,32.10
2023-01-20T10:38:34.455Z,31.71
2023-01-20T10:41:17.624Z,31.48
2023-01-20T10:43:54.185Z,31.68
2023-01-20T10:47:01.731Z,31.37
2023-01-20T10:49:52.775Z,30.46
2023-01-20T10:53:03.225Z,30.30
2023-01-20T10:55:52.214Z,31.11
2023-01-20T10:58:31.923Z,31.30
2023-01-20T11:01:14.731Z,30.74
2023-01-20T11:03:46.625Z,30.36
2023-01-20T11:06:31.107Z,29.92
2023-01-20T11:09:22.063Z,29.93
2023-01-20T11:11:55.889Z,30.33
2023-01-20T11:14:26.086Z,31.14
2023-01-20T11:17:04.884Z,31.54
2023-01-20T11:19:51.445Z,31.67
2023-01-20T11:22:31.606Z,31.62
2023-01-20T11:25:07.141Z,32.08
2023-01-20T11:27:46.519Z,31.81
2023-01-20T11:30:34.133Z,31.41
2023-01-20T11:33:20.245Z,31.19
2023-01-20T11:36:21.560Z,31.24
2023-01-20T11:38:54.472Z,31.03
2023-01-20T11:41:34.368Z,31.27
2023-01-20T11:44:22.708Z,31.06
2023-01-20T11:47:36.008Z,31.83
2023-01-20T11:50:12.936Z,32.44
2023-01-20T11:52:47.459Z,32.20
2023-01-20T11:55:29.175Z,31.58
2023-01-20T11:58:05.163Z,31.51
2023-01-20T12:00:47.169Z,31.66
2023-01-20T12:03:30.731Z,31.79
2023-01-20T12:06:13.327Z,32.02
2023-01-20T12:08:51.281Z,31.99
2023-01-20T12:11:48.937Z,31.97
2023-01-20T12:14:34.148Z,32.33
2023-01-20T12:17:23.056Z,32.36
2023-01-20T12:20:26.694Z,32.14
2023-01-20T12:23:00.990Z,32.30
2023-01-20T12:25:45.768Z,32.32
2023-01-20T12:28:21.920Z,32.48
2023-01-20T12:31:12.423Z,32.52
2023-01-20T12:33:51.928Z,32.27
2023-01-20T12:36:50.072Z,32.49
2023-01-20T12:39:49.414Z,32.34
2023-01-20T12:42:40.243Z,32.21
2023-01-20T12:45:21.963Z,32.57
2023-01-20T12:48:07.574Z,32.68
2023-01-20T12:50:58.218Z,32.59
2023-01-20T12:53:41.929Z,32.70
2023-01-20T12:56:40.507Z,32.41
2023-01-20T12:59:29.245Z,32.09
2023-01-20T13:02:19.335Z,32.12
2023-01-20T13:05:27.285Z,31.97
2023-01-20T13:08:27.439Z,31.63
2023-01-20T13:11:24.189Z,31.70
2023-01-20T13:14:15.338Z,31.10
2023-01-20T13:17:00.702Z,30.97
2023-01-20T13:19:54.653Z,30.65
2023-01-20T13:22:30.931Z,30.70
2023-01-20T13:25:19.026Z,30.63
2023-01-20T13:27:52.346Z,30.30
2023-01-20T13:30:46.226Z,29.58
2023-01-20T13:33:41.748Z,29.45
2023-01-20T13:36:24.782Z,30.13
2023-01-20T13:39:33.337Z,29.56
2023-01-20T13:42:33.061Z,29.48
2023-01-20T13:45:15.975Z,29.50
2023-01-20T13:48:04.129Z,29.42
2023-01-20T13:50:42.599Z,29.04
2023-01-20T13:53:13.781Z,28.86
2023-01-20T13:55:41.821Z,27.87
2023-01-20T13:58:34.073Z,27.68
2023-01-20T14:01:14.262Z,28.56
2023-01-20T14:04:05.614Z,28.93
2023-01-20T14:06:37.330Z,28.46
2023-01-20T14:09:24.564Z,28.92
2023-01-20T14:11:59.037Z,28.68
2023-01-20T14:14:32.798Z,28.61
2023-01-20T14:17:14.611Z,28.69
2023-01-20T14:20:00.581Z,28.01
2023-01-20T14:22:33.729Z,28.71
2023-01-20T14:25:19.278Z,27.88
2023-01-20T14:27:50.064Z,27.70
2023-01-20T14:30:26.635Z,28.37
2023-01-20T14:32:59.847Z,28.30
2023-01-20T14:35:35.261Z,27.73
2023-01-20T14:38:05.954Z,28.08
2023-01-20T14:40:42.974Z,28.54
2023-01-20T14:43:24.345Z,27.80
2023-01-20T14:46:00.131Z,27.53
2023-01-20T14:48:34.785Z,28.22
2023-01-20T14:51:04.408Z,28.25
2023-01-20T14:53:32.172Z,28.21
2023-01-20T14:56:09.922Z,28.20
2023-01-20T14:58:48.786Z,28.54
2023-01-20T15:01:26.901Z,29.05
2023-01-20T15:03:57.756Z,28.81
2023-01-20T15:06:33.364Z,29.21
2023-01-20T15:09:09.075Z,29.13
2023-01-20T15:11:40.608Z,28.96
2023-01-20T15:14:09.513Z,28.86
2023-01-20T15:16:37.308Z,29.41
2023-01-20T15:19:14.131Z,29.81
2023-01-20T15:21:47.249Z,29.35
2023-01-20T15:24:25.428Z,29.65
2023-01-20T15:26:58.676Z,29.23
2023-01-20T15:29:36.622Z,28.59
2023-01-20T15:32:14.039Z,28.73
2023-01-20T15:34:49.963Z,28.07
2023-01-20T15:37:22.106Z,28.21
2023-01-20T15:39:51.237Z,28.55
2023-01-20T15:42:25.311Z,27.96
2023-01-20T15:44:59.170Z,28.18
2023-01-20T15:47:34.984Z,28.47
2023-01-20T15:50:16.080Z,28.78
2023-01-20T15:52:46.380Z,29.37
2023-01-20T15:55:26.861Z,28.87
2023-01-20T15:57:59.168Z,29.18
2023-01-20T16:00:34.316Z,29.03
2023-01-20T16:03:08.652Z,29.91
2023-01-20T16:05:41.672Z,29.47
2023-01-20T16:08:24.136Z,29.09
2023-01-20T16:10:54.190Z,28.81
2023-01-20T16:13:26.934Z,29.46
2023-01-20T16:15:57.440Z,29.02
2023-01-20T16:18:31.009Z,29.08
2023-01-20T16:21:02.477Z,29.08
2023-01-20T16:23:34.691Z,30.00
2023-01-20T16:26:05.038Z,29.91
2023-01-20T16:28:33.186Z,30.13
2023-01-20T16:31:03.844Z,30.77
2023-01-20T16:33:39.361Z,31.06
2023-01-20T16:36:24.155Z,31.28
2023-01-20T16:39:01.532Z,31.30
2023-01-20T16:41:31.946Z,31.40
2023-01-20T16:44:06.311Z,31.48
2023-01-20T16:46:39.388Z,31.01
2023-01-20T16:49:10.162Z,31.07
2023-01-20T16:51:45.617Z,31.18
2023-01-20T16:54:18.839Z,31.25
2023-01-20T16:56:54.184Z,31.56
2023-01-20T16:59:26.122Z,31.48
2023-01-20T17:02:01.972Z,31.80
2023-01-20T17:04:40.260Z,31.92
2023-01-20T17:07:11.018Z,32.01
2023-01-20T17:09:46.984Z,32.12
2023-01-20T17:12:17.503Z,31.18
2023-01-20T17:14:56.031Z,30.64
2023-01-20T17:17:26.620Z,31.46
2023-01-20T17:20:02.517Z,31.41
2023-01-20T17:22:33.819Z,31.80
2023-01-20T17:25:05.644Z,32.03
2023-01-20T17:27:42.789Z,31.92
2023-01-20T17:30:21.020Z,31.71
2023-01-20T17:32:51.568Z,31.86
2023-01-20T17:35:30.920Z,31.82
2023-01-20T17:38:01.379Z,32.04
2023-01-20T17:40:43.344Z,32.41
2023-01-20T17:43:21.725Z,32.32
2023-01-20T17:45:57.972Z,32.17
2023-01-20T17:48:35.978Z,32.15
2023-01-20T17:51:15.874Z,32.32
2023-01-20T17:53:49.602Z,32.57
2023-01-20T17:56:21.821Z,32.16
2023-01-20T17:58:58.608Z,32.00
2023-01-20T18:01:34.834Z,32.44
2023-01-20T18:04:11.688Z,32.28
2023-01-20T18:06:45.244Z,32.05
2023-01-20T18:09:21.381Z,32.18
2023-01-20T18:11:52.034Z,32.18
2023-01-20T18:14:24.713Z,32.24
2023-01-20T18:16:57.509Z,32.16
2023-01-20T18:19:27.591Z,32.06
2023-01-20T18:21:55.141Z,32.14
2023-01-20T18:24:30.405Z,31.99
2023-01-20T18:27:00.977Z,32.33
2023-01-20T18:29:31.560Z,32.11
2023-01-20T18:31:59.773Z,31.88
2023-01-20T18:34:32.350Z,32.01
2023-01-20T18:37:03.827Z,32.19
2023-01-20T18:39:36.758Z,32.05
2023-01-20T18:42:09.822Z,31.85
2023-01-20T18:44:43.618Z,31.97
2023-01-20T18:47:16.425Z,32.12
2023-01-20T18:49:48.704Z,31.93
2023-01-20T18:52:19.086Z,32.06
2023-01-20T18:54:49.777Z,31.89
2023-01-20T18:57:22.235Z,32.15
2023-01-20T18:59:56.902Z,31.97
2023-01-20T19:02:24.788Z,31.73
2023-01-20T19:04:52.229Z,31.78
2023-01-20T19:07:25.627Z,32.03
2023-01-20T19:09:55.475Z,31.76
2023-01-20T19:12:23.986Z,31.80
2023-01-20T19:14:56.812Z,32.01
2023-01-20T19:17:26.815Z,31.94
2023-01-20T19:19:59.636Z,31.97
2023-01-20T19:22:31.882Z,32.03
2023-01-20T19:25:01.737Z,31.94
2023-01-20T19:27:34.346Z,31.91
2023-01-20T19:30:04.208Z,31.94
2023-01-20T19:32:34.028Z,32.15
2023-01-20T19:35:03.764Z,32.11
2023-01-20T19:37:33.581Z,32.04
2023-01-20T19:40:03.971Z,32.10
2023-01-20T19:42:34.585Z,32.45
2023-01-20T19:45:05.439Z,32.19
2023-01-20T19:47:38.527Z,32.22
2023-01-20T19:50:10.003Z,32.07
2023-01-20T19:52:40.001Z,31.68
2023-01-20T19:55:10.491Z,31.95
2023-01-20T19:57:38.085Z,32.10
2023-01-20T20:00:15.342Z,32.07
2023-01-20T20:02:45.737Z,31.79
2023-01-20T20:05:13.557Z,32.07
2023-01-20T20:07:46.276Z,32.02
2023-01-20T20:10:14.953Z,31.94
2023-01-20T20:12:44.966Z,31.77
2023-01-20T20:15:15.079Z,31.84
2023-01-20T20:17:44.780Z,31.76
2023-01-20T20:20:17.317Z,31.79
2023-01-20T20:22:47.799Z,31.99
2023-01-20T20:25:20.903Z,32.02
2023-01-20T20:27:56.040Z,32.12
2023-01-20T20:30:28.389Z,32.15
2023-01-20T20:33:01.244Z,31.99
2023-01-20T20:35:28.896Z,31.97
2023-01-20T20:38:01.668Z,31.85
2023-01-20T20:40:37.265Z,31.95
2023-01-20T20:43:09.981Z,31.70
2023-01-20T20:45:37.449Z,31.54
2023-01-20T20:48:09.893Z,31.76
2023-01-20T20:50:44.592Z,31.53
2023-01-20T20:53:15.440Z,31.75
2023-01-20T20:55:45.986Z,31.72
2023-01-20T20:58:17.177Z,31.86
2023-01-20T21:00:49.706Z,31.85
2023-01-20T21:03:17.600Z,31.75
2023-01-20T21:05:49.870Z,31.71
2023-01-20T21:08:19.443Z,31.57
2023-01-20T21:10:49.732Z,31.54
2023-01-20T21:13:20.196Z,31.71
2023-01-20T21:16:03.505Z,31.78
2023-01-20T21:18:36.633Z,31.54
2023-01-20T21:21:11.280Z,31.58
2023-01-20T21:23:40.762Z,31.59
2023-01-20T21:26:14.539Z,31.63
2023-01-20T21:28:43.040Z,31.97
2023-01-20T21:31:16.199Z,31.89
2023-01-20T21:33:55.090Z,31.80
2023-01-20T21:36:31.594Z,31.90
2023-01-20T21:39:02.179Z,31.83
2023-01-20T21:41:30.049Z,31.47
2023-01-20T21:44:19.109Z,31.59
2023-01-20T21:46:46.875Z,31.62
2023-01-20T21:49:36.937Z,31.93
2023-01-20T21:52:23.355Z,31.91
2023-01-20T21:54:50.945Z,31.44
2023-01-20T21:57:27.074Z,31.55
2023-01-20T22:00:00.022Z,31.49
2023-01-20T22:02:31.021Z,31.26
2023-01-20T22:05:03.391Z,31.34
2023-01-20T22:07:33.370Z,31.35
2023-01-20T22:10:07.684Z,31.37
2023-01-20T22:12:37.858Z,31.32
2023-01-20T22:15:07.972Z,31.53
2023-01-20T22:17:35.522Z,31.70
2023-01-20T22:20:06.722Z,31.29
2023-01-20T22:22:44.147Z,31.42
2023-01-20T22:25:13.980Z,31.41
2023-01-20T22:27:41.590Z,31.30
2023-01-20T22:30:12.895Z,31.76
2023-01-20T22:32:45.992Z,31.57
2023-01-20T22:35:18.408Z,31.51
2023-01-20T22:37:50.420Z,31.48
2023-01-20T22:40:20.903Z,31.42
2023-01-20T22:42:53.417Z,31.68
2023-01-20T22:45:25.303Z,31.49
2023-01-20T22:47:56.143Z,31.26
2023-01-20T22:50:28.726Z,31.43
2023-01-20T22:52:58.320Z,31.38
2023-01-20T22:55:28.496Z,31.30
2023-01-20T22:58:01.561Z,31.43
2023-01-20T23:00:28.952Z,31.54
2023-01-20T23:03:01.238Z,31.49
2023-01-20T23:05:31.219Z,31.59
2023-01-20T23:08:00.777Z,31.35
2023-01-20T23:10:46.303Z,31.23
2023-01-20T23:13:20.955Z,31.15
2023-01-20T23:15:54.683Z,31.33
2023-01-20T23:18:29.916Z,31.18
2023-01-20T23:21:05.805Z,31.14
2023-01-20T23:23:43.786Z,31.30
2023-01-20T23:26:17.343Z,31.33
2023-01-20T23:28:50.935Z,31.52
2023-01-20T23:31:23.891Z,31.39
2023-01-20T23:33:59.059Z,31.19
2023-01-20T23:36:29.990Z,31.33
2023-01-20T23:39:02.715Z,31.06
2023-01-20T23:41:33.128Z,31.21
2023-01-20T23:44:03.224Z,31.01
2023-01-20T23:46:30.845Z,31.32
2023-01-20T23:49:03.816Z,31.14
2023-01-20T23:51:33.699Z,31.07
2023-01-20T23:54:04.490Z,31.20
2023-01-20T23:56:35.977Z,30.81
2023-01-20T23:59:06.559Z,30.82
